Time;durP1;ratioP1;P1;durP2;ratioP2;P2;SDS_P1;SDS_P2;PMS_P1;PMS_P2;Temp;Humidity;BMP_temperature;BMP_pressure;BME280_temperature;BME280_humidity;BME280_pressure;Samples;Min_cycle;Max_cycle;Signal;HPM_P1;HPM_P2
2022/08/04 00:02:24;;;;;;;;;;;;;;;-140.72;100.00;52250.84;4981278;28;19918;-66
2022/08/04 00:04:56;;;;;;;;;;;;;;;-140.72;100.00;52244.78;4969102;28;19922;-68
2022/08/04 00:07:21;;;;;;;;;;;;;;;-140.72;100.00;52240.72;4968964;28;19925;-66
2022/08/04 00:09:58;;;;;;;;;;;;;;;-140.72;100.00;52232.59;4966618;28;20302;-66
2022/08/04 00:12:27;;;;;;;;;;;;;;;-140.72;100.00;52234.63;4966456;28;19918;-67
2022/08/04 00:14:55;;;;;;;;;;;;;;;-140.72;100.00;52250.84;4969840;28;19918;-66
2022/08/04 00:17:23;;;;;;;;;;;;;;;-140.72;100.00;52204.19;4971851;28;20280;-67
2022/08/04 00:19:52;;;;;;;;;;;;;;;-140.72;100.00;52265.06;4977324;28;19918;-67
2022/08/04 00:22:21;;;;;;;;;;;;;;;-140.72;100.00;52236.66;4965410;28;20055;-66
2022/08/04 00:24:46;;;;;;;;;;;;;;;-140.72;100.00;52224.47;4962629;28;20337;-67
2022/08/04 00:27:12;;;;;;;;;;;;;;;-140.72;100.00;52242.75;4976115;28;19965;-67
2022/08/04 00:29:38;;;;;;;;;;;;;;;-140.72;100.00;52238.69;4959843;28;19918;-66
2022/08/04 00:32:05;;;;;;;;;;;;;;;-140.72;100.00;52263.03;4980367;28;20004;-67
2022/08/04 00:34:30;;;;;;;;;;;;;;;-140.72;100.00;52218.38;4989849;28;20381;-67
2022/08/04 00:36:56;;;;;;;;;;;;;;;-140.72;100.00;52252.88;4974997;28;19922;-66
2022/08/04 00:39:21;;;;;;;;;;;;;;;-140.72;100.00;52267.09;4962818;28;19971;-67
2022/08/04 00:41:50;;;;;;;;;;;;;;;-140.72;100.00;52256.94;4974915;28;19918;-67
2022/08/04 00:44:33;;;;;;;;;;;;;;;-140.72;100.00;52222.44;4963157;28;20024;-67
2022/08/04 00:47:29;;;;;;;;;;;;;;;-140.72;100.00;52244.78;4973565;28;19925;-66
2022/08/04 00:49:58;;;;;;;;;;;;;;;-140.72;100.00;52269.13;4974413;28;19926;-66
2022/08/04 00:52:40;;;;;;;;;;;;;;;-140.72;100.00;52299.56;4978570;28;19929;-66
2022/08/04 00:55:11;;;;;;;;;;;;;;;-140.72;100.00;52261.00;4976647;28;19972;-66
2022/08/04 00:57:49;;;;;;;;;;;;;;;-140.72;100.00;52263.03;4982379;28;19957;-66
2022/08/04 01:00:15;;;;;;;;;;;;;;;-140.72;100.00;52273.19;4971120;28;20418;-67
2022/08/04 01:02:58;;;;;;;;;;;;;;;-140.72;100.00;52271.16;4967826;28;19969;-67
2022/08/04 01:05:36;;;;;;;;;;;;;;;-140.72;100.00;52250.84;4974941;28;19999;-67
2022/08/04 01:08:08;;;;;;;;;;;;;;;-140.72;100.00;52269.13;4975824;28;19918;-66
2022/08/04 01:10:42;;;;;;;;;;;;;;;-140.72;100.00;52285.34;4992682;28;19921;-67
2022/08/04 01:13:26;;;;;;;;;;;;;;;-140.72;100.00;52283.31;4983834;28;19926;-67
2022/08/04 01:15:51;;;;;;;;;;;;;;;-140.72;100.00;52258.97;4970761;28;19919;-66
2022/08/04 01:18:21;;;;;;;;;;;;;;;-140.72;100.00;52279.25;4976376;28;19969;-66
2022/08/04 01:20:46;;;;;;;;;;;;;;;-140.72;100.00;52289.41;4985737;28;19925;-67
2022/08/04 01:23:30;;;;;;;;;;;;;;;-140.72;100.00;52291.44;4968284;28;19918;-68
2022/08/04 01:26:01;;;;;;;;;;;;;;;-140.72;100.00;52263.03;4975505;28;19922;-67
2022/08/04 01:28:35;;;;;;;;;;;;;;;-140.72;100.00;52254.91;4974582;28;19918;-66
2022/08/04 01:31:12;;;;;;;;;;;;;;;-140.72;100.00;52263.03;4969356;28;20509;-67
2022/08/04 01:33:38;;;;;;;;;;;;;;;-140.72;100.00;52287.38;4969281;28;19922;-67
2022/08/04 01:36:04;;;;;;;;;;;;;;;-140.72;100.00;52271.16;4974564;28;19928;-67
2022/08/04 01:38:29;;;;;;;;;;;;;;;-140.72;100.00;52303.59;4973513;28;19921;-66
2022/08/04 01:41:03;;;;;;;;;;;;;;;-140.72;100.00;52279.25;4974117;28;19966;-67
2022/08/04 01:43:29;;;;;;;;;;;;;;;-140.72;100.00;52281.28;4973938;28;19965;-66
2022/08/04 01:45:59;;;;;;;;;;;;;;;-140.72;100.00;52265.06;4973357;28;19993;-67
2022/08/04 01:48:25;;;;;;;;;;;;;;;-140.72;100.00;52309.69;4992511;28;19925;-66
2022/08/04 01:50:52;;;;;;;;;;;;;;;-140.72;100.00;52285.34;4981841;28;19918;-67
2022/08/04 01:53:18;;;;;;;;;;;;;;;-140.72;100.00;52299.56;4971991;28;19918;-67
2022/08/04 01:56:05;;;;;;;;;;;;;;;-140.72;100.00;52293.47;4962821;28;19941;-66
2022/08/04 01:58:32;;;;;;;;;;;;;;;-140.72;100.00;52271.16;4978786;28;19972;-67
2022/08/04 02:01:03;;;;;;;;;;;;;;;-140.72;100.00;52291.44;4979382;28;20022;-66
2022/08/04 02:03:47;;;;;;;;;;;;;;;-140.72;100.00;52321.88;4974102;28;20013;-67
2022/08/04 02:06:38;;;;;;;;;;;;;;;-140.72;100.00;52289.41;4960334;28;19942;-67
2022/08/04 02:09:26;;;;;;;;;;;;;;;-140.72;100.00;52285.34;4961632;28;19919;-67
2022/08/04 02:12:01;;;;;;;;;;;;;;;-140.72;100.00;52279.25;4974435;28;20460;-67
2022/08/04 02:14:39;;;;;;;;;;;;;;;-140.72;100.00;52289.41;4974226;28;19964;-66
2022/08/04 02:17:37;;;;;;;;;;;;;;;-140.72;100.00;52334.03;4982972;28;19921;-67
2022/08/04 02:20:05;;;;;;;;;;;;;;;-140.72;100.00;52291.44;4940863;28;19925;-66
2022/08/04 02:22:32;;;;;;;;;;;;;;;-140.72;100.00;52287.38;4972662;28;19925;-67
2022/08/04 02:25:02;;;;;;;;;;;;;;;-140.72;100.00;52342.16;4956071;28;19926;-67
2022/08/04 02:27:34;;;;;;;;;;;;;;;-140.72;100.00;52305.63;4973197;28;19922;-68
2022/08/04 02:30:03;;;;;;;;;;;;;;;-140.72;100.00;52281.28;4967865;28;19918;-67
2022/08/04 02:32:29;;;;;;;;;;;;;;;-140.72;100.00;52313.75;4968443;28;19926;-65
2022/08/04 02:37:46;;;;;;;;;;;;;;;-140.72;100.00;52291.44;5389277;23;19928;-70
2022/08/04 02:40:11;;;;;;;;;;;;;;;-140.72;100.00;52317.81;4896592;29;19972;-71
2022/08/04 02:42:37;;;;;;;;;;;;;;;-140.72;100.00;52289.41;4879905;29;19920;-71
2022/08/04 02:45:04;;;;;;;;;;;;;;;-140.72;100.00;52317.81;4894592;29;19920;-71
2022/08/04 02:47:30;;;;;;;;;;;;;;;-140.72;100.00;52291.44;4894591;29;19919;-71
2022/08/04 02:49:55;;;;;;;;;;;;;;;-140.72;100.00;52325.94;4894716;29;19968;-71
2022/08/04 02:52:22;;;;;;;;;;;;;;;-140.72;100.00;52327.97;4900265;29;19919;-71
2022/08/04 02:54:50;;;;;;;;;;;;;;;-140.72;100.00;52334.03;4885977;29;20311;-71
2022/08/04 02:57:16;;;;;;;;;;;;;;;-140.72;100.00;52332.03;4882707;29;19920;-71
2022/08/04 03:00:00;;;;;;;;;;;;;;;-140.72;100.00;52317.81;4882107;29;19920;-71
2022/08/04 03:02:52;;;;;;;;;;;;;;;-140.72;100.00;52313.75;4882217;29;20014;-71
2022/08/04 03:05:18;;;;;;;;;;;;;;;-140.72;100.00;52285.34;4860164;29;19920;-71
2022/08/04 03:07:56;;;;;;;;;;;;;;;-140.72;100.00;52287.38;4884096;29;19920;-71
2022/08/04 03:10:29;;;;;;;;;;;;;;;-140.72;100.00;52327.97;4896724;29;19919;-71
2022/08/04 03:13:06;;;;;;;;;;;;;;;-140.72;100.00;52323.91;4884271;29;19926;-71
2022/08/04 03:19:06;;;;;;;;;;;;;;;-140.72;100.00;52313.75;4888700;29;20341;-71
2022/08/04 03:21:40;;;;;;;;;;;;;;;-140.72;100.00;52340.13;4850701;29;19976;-71
2022/08/04 03:24:24;;;;;;;;;;;;;;;-140.72;100.00;52313.75;4893912;29;19919;-71
2022/08/04 03:27:10;;;;;;;;;;;;;;;-140.72;100.00;52277.22;4881873;29;19920;-70
2022/08/04 03:29:44;;;;;;;;;;;;;;;-140.72;100.00;52307.66;4894406;29;19933;-72
2022/08/04 03:32:18;;;;;;;;;;;;;;;-140.72;100.00;52327.97;4881959;29;20394;-72
2022/08/04 03:34:52;;;;;;;;;;;;;;;-140.72;100.00;52313.75;4897464;29;20297;-72
2022/08/04 03:37:44;;;;;;;;;;;;;;;-140.72;100.00;52289.41;4899773;29;19928;-72
2022/08/04 03:40:28;;;;;;;;;;;;;;;-140.72;100.00;52342.16;4878328;29;19927;-72
2022/08/04 03:42:53;;;;;;;;;;;;;;;-140.72;100.00;52313.75;4896607;29;19968;-72
2022/08/04 03:45:32;;;;;;;;;;;;;;;-140.72;100.00;52305.63;4892397;29;19924;-71
2022/08/04 03:48:16;;;;;;;;;;;;;;;-140.72;100.00;52332.03;4881679;29;19927;-72
2022/08/04 03:50:41;;;;;;;;;;;;;;;-140.72;100.00;52334.03;4895574;29;19947;-72
2022/08/04 03:53:12;;;;;;;;;;;;;;;-140.72;100.00;52336.06;4894473;29;19923;-71
2022/08/04 03:55:37;;;;;;;;;;;;;;;-140.72;100.00;52325.94;4891686;29;19924;-71
2022/08/04 03:58:25;;;;;;;;;;;;;;;-140.72;100.00;52366.50;4893731;29;20493;-71
2022/08/04 04:00:56;;;;;;;;;;;;;;;-140.72;100.00;52325.94;4899661;29;20340;-72
2022/08/04 04:03:33;;;;;;;;;;;;;;;-140.72;100.00;52301.59;4882926;29;19943;-72
2022/08/04 04:06:15;;;;;;;;;;;;;;;-140.72;100.00;52340.13;4870070;29;19973;-72
2022/08/04 04:08:52;;;;;;;;;;;;;;;-140.72;100.00;52330.00;4886094;29;19967;-71
2022/08/04 04:11:23;;;;;;;;;;;;;;;-140.72;100.00;52321.88;4890161;29;19960;-71
2022/08/04 04:14:04;;;;;;;;;;;;;;;-140.72;100.00;52340.13;4866968;29;19924;-71
2022/08/04 04:16:44;;;;;;;;;;;;;;;-140.72;100.00;52305.63;4887882;29;20107;-72
2022/08/04 04:19:21;;;;;;;;;;;;;;;-140.72;100.00;52309.69;4893623;29;19919;-72
2022/08/04 04:21:53;;;;;;;;;;;;;;;-140.72;100.00;52348.25;4899545;29;20268;-71
2022/08/04 04:24:36;;;;;;;;;;;;;;;-140.72;100.00;52313.75;4896173;29;19942;-72
2022/08/04 04:27:12;;;;;;;;;;;;;;;-140.72;100.00;52340.13;4880815;29;19975;-72
2022/08/04 04:30:00;;;;;;;;;;;;;;;-140.72;100.00;52366.50;4880857;29;19923;-71
2022/08/04 04:32:34;;;;;;;;;;;;;;;-140.72;100.00;52313.75;4882442;29;19927;-71
2022/08/04 04:35:18;;;;;;;;;;;;;;;-140.72;100.00;52330.00;4881597;29;19919;-71
2022/08/04 04:38:02;;;;;;;;;;;;;;;-140.72;100.00;52360.44;4887415;29;19923;-71
2022/08/04 04:40:33;;;;;;;;;;;;;;;-140.72;100.00;52307.66;4899232;29;19923;-71
2022/08/04 04:43:01;;;;;;;;;;;;;;;-140.72;100.00;52370.56;4893079;29;19970;-71
2022/08/04 04:45:41;;;;;;;;;;;;;;;-140.72;100.00;52374.63;4882169;29;19955;-75
2022/08/04 04:48:11;;;;;;;;;;;;;;;-140.72;100.00;52330.00;4888344;29;20418;-73
2022/08/04 04:50:42;;;;;;;;;;;;;;;-140.72;100.00;52297.53;4901092;29;19954;-78
2022/08/04 04:53:19;;;;;;;;;;;;;;;-140.72;100.00;52346.22;4900626;29;20127;-76
2022/08/04 04:55:50;;;;;;;;;;;;;;;-140.72;100.00;52311.72;4887405;29;19920;-75
2022/08/04 04:58:17;;;;;;;;;;;;;;;-140.72;100.00;52317.81;4896034;29;19963;-79
2022/08/04 05:00:45;;;;;;;;;;;;;;;-140.72;100.00;52344.19;4877070;29;19944;-75
2022/08/04 05:03:30;;;;;;;;;;;;;;;-140.72;100.00;52368.53;4881150;29;19927;-77
2022/08/04 05:05:59;;;;;;;;;;;;;;;-140.72;100.00;52356.38;4895146;29;19985;-77
2022/08/04 05:08:33;;;;;;;;;;;;;;;-140.72;100.00;52311.72;4898997;29;19970;-75
2022/08/04 05:11:24;;;;;;;;;;;;;;;-140.72;100.00;52293.47;4882561;29;19924;-79
2022/08/04 05:13:51;;;;;;;;;;;;;;;-140.72;100.00;52323.91;4875627;29;20292;-77
2022/08/04 05:16:38;;;;;;;;;;;;;;;-140.72;100.00;52338.09;4886870;29;19924;-74
2022/08/04 05:19:11;;;;;;;;;;;;;;;-140.72;100.00;52309.69;4884357;29;19908;-75
2022/08/04 05:21:51;;;;;;;;;;;;;;;-140.72;100.00;52277.22;4870698;29;19951;-74
2022/08/04 05:24:18;;;;;;;;;;;;;;;-140.72;100.00;52358.41;4890443;29;19923;-75
2022/08/04 05:26:54;;;;;;;;;;;;;;;-140.72;100.00;52317.81;4876735;29;19919;-74
2022/08/04 05:29:31;;;;;;;;;;;;;;;-140.72;100.00;52269.13;4897045;29;20376;-75
2022/08/04 05:31:58;;;;;;;;;;;;;;;-140.72;100.00;52289.41;4874022;29;20344;-73
2022/08/04 05:34:34;;;;;;;;;;;;;;;-140.72;100.00;52338.09;4883515;29;20014;-75
2022/08/04 05:37:02;;;;;;;;;;;;;;;-140.72;100.00;52330.00;4897613;29;20393;-74
2022/08/04 05:39:28;;;;;;;;;;;;;;;-140.72;100.00;52338.09;4902007;29;19923;-74
2022/08/04 05:41:54;;;;;;;;;;;;;;;-140.72;100.00;52370.56;4888629;29;20280;-76
2022/08/04 05:44:21;;;;;;;;;;;;;;;-140.72;100.00;52327.97;4879979;29;19970;-76
2022/08/04 05:46:47;;;;;;;;;;;;;;;-140.72;100.00;52325.94;4881711;29;19919;-75
2022/08/04 05:49:12;;;;;;;;;;;;;;;-140.72;100.00;52285.34;4875154;29;20022;-75
2022/08/04 05:51:38;;;;;;;;;;;;;;;-140.72;100.00;52311.72;4875419;29;19963;-75
2022/08/04 05:54:04;;;;;;;;;;;;;;;-140.72;100.00;52295.50;4882768;29;20340;-75
2022/08/04 05:56:32;;;;;;;;;;;;;;;-140.72;100.00;52346.22;4881793;29;19927;-76
2022/08/04 05:58:58;;;;;;;;;;;;;;;-140.72;100.00;52323.91;4897445;29;19935;-79
2022/08/04 06:01:24;;;;;;;;;;;;;;;-140.72;100.00;52291.44;4879102;29;19959;-75
2022/08/04 06:03:49;;;;;;;;;;;;;;;-140.72;100.00;52336.06;4898897;29;19926;-75
2022/08/04 06:06:16;;;;;;;;;;;;;;;-140.72;100.00;52342.16;4884843;29;19927;-75
2022/08/04 06:08:41;;;;;;;;;;;;;;;-140.72;100.00;52293.47;4889909;29;19923;-75
2022/08/04 06:11:08;;;;;;;;;;;;;;;-140.72;100.00;52254.91;4880290;29;20450;-75
2022/08/04 06:13:37;;;;;;;;;;;;;;;-140.72;100.00;52295.50;4880067;29;19919;-75
2022/08/04 06:16:04;;;;;;;;;;;;;;;-140.72;100.00;52313.75;4894561;29;19924;-76
2022/08/04 06:18:31;;;;;;;;;;;;;;;-140.72;100.00;52327.97;4889676;29;19920;-74
2022/08/04 06:20:57;;;;;;;;;;;;;;;-140.72;100.00;52307.66;4900889;29;19923;-76
2022/08/04 06:23:27;;;;;;;;;;;;;;;-140.72;100.00;52301.59;4875188;29;19983;-75
2022/08/04 06:25:55;;;;;;;;;;;;;;;-140.72;100.00;52321.88;4874798;29;19927;-76
2022/08/04 06:28:26;;;;;;;;;;;;;;;-140.72;100.00;52309.69;4880126;29;19931;-72
2022/08/04 06:30:53;;;;;;;;;;;;;;;-140.72;100.00;52325.94;4885273;29;20452;-74
2022/08/04 06:33:25;;;;;;;;;;;;;;;-140.72;100.00;52301.59;4901265;29;19951;-74
2022/08/04 06:35:52;;;;;;;;;;;;;;;-140.72;100.00;52279.25;4892526;29;20295;-74
2022/08/04 06:38:18;;;;;;;;;;;;;;;-140.72;100.00;52275.19;4888280;29;19956;-74
2022/08/04 06:40:43;;;;;;;;;;;;;;;-140.72;100.00;52281.28;4871862;29;19924;-74
2022/08/04 06:43:09;;;;;;;;;;;;;;;-140.72;100.00;52287.38;4880952;29;19927;-73
2022/08/04 06:45:36;;;;;;;;;;;;;;;-140.72;100.00;52265.06;4868610;29;19927;-73
2022/08/04 06:48:02;;;;;;;;;;;;;;;-140.72;100.00;52252.88;4893812;29;19924;-73
2022/08/04 06:50:28;;;;;;;;;;;;;;;-140.72;100.00;52281.28;4870639;29;20426;-74
2022/08/04 06:52:53;;;;;;;;;;;;;;;-140.72;100.00;52261.00;4893798;29;19919;-74
2022/08/04 06:55:18;;;;;;;;;;;;;;;-140.72;100.00;52248.81;4889829;29;19923;-73
2022/08/04 06:57:44;;;;;;;;;;;;;;;-140.72;100.00;52283.31;4887630;29;19924;-75
2022/08/04 07:00:12;;;;;;;;;;;;;;;-140.72;100.00;52261.00;4868643;29;19919;-74
2022/08/04 07:02:40;;;;;;;;;;;;;;;-140.72;100.00;52252.88;4890804;29;19928;-74
2022/08/04 07:05:06;;;;;;;;;;;;;;;-140.72;100.00;52228.53;4871341;29;19922;-75
2022/08/04 07:07:31;;;;;;;;;;;;;;;-140.72;100.00;52244.78;4895035;29;19928;-73
2022/08/04 07:09:57;;;;;;;;;;;;;;;-140.72;100.00;52224.47;4889879;29;19980;-74
2022/08/04 07:12:23;;;;;;;;;;;;;;;-140.72;100.00;52230.56;4871676;29;19923;-73
2022/08/04 07:14:49;;;;;;;;;;;;;;;-140.72;100.00;52206.22;4891553;29;19966;-73
2022/08/04 07:17:15;;;;;;;;;;;;;;;-140.72;100.00;52189.97;4882545;29;20368;-76
2022/08/04 07:19:43;;;;;;;;;;;;;;;-140.72;100.00;52220.41;4872140;29;19930;-73
2022/08/04 07:22:08;;;;;;;;;;;;;;;-140.72;100.00;52218.38;4885968;29;19939;-73
2022/08/04 07:24:34;;;;;;;;;;;;;;;-140.72;100.00;52228.53;4887332;29;19928;-73
2022/08/04 07:27:00;;;;;;;;;;;;;;;-140.72;100.00;52236.66;4890281;29;19928;-74
2022/08/04 07:29:26;;;;;;;;;;;;;;;-140.72;100.00;52232.59;4886149;29;20411;-75
2022/08/04 07:31:52;;;;;;;;;;;;;;;-140.72;100.00;52224.47;4884668;29;20005;-76
2022/08/04 07:34:18;;;;;;;;;;;;;;;-140.72;100.00;52208.25;4899536;29;19959;-76
2022/08/04 07:36:44;;;;;;;;;;;;;;;-140.72;100.00;52204.19;4884649;29;19972;-73
2022/08/04 07:39:09;;;;;;;;;;;;;;;-140.72;100.00;52204.19;4897630;29;20332;-72
2022/08/04 07:41:35;;;;;;;;;;;;;;;-140.72;100.00;52177.81;4897327;29;19919;-72
2022/08/04 07:44:00;;;;;;;;;;;;;;;-140.72;100.00;52230.56;4911729;29;19965;-73
2022/08/04 07:46:26;;;;;;;;;;;;;;;-140.72;100.00;52212.31;4887392;29;19961;-75
2022/08/04 07:48:51;;;;;;;;;;;;;;;-140.72;100.00;52185.94;4898835;29;20360;-73
2022/08/04 07:51:17;;;;;;;;;;;;;;;-140.72;100.00;52175.78;4901750;29;20011;-73
2022/08/04 07:53:43;;;;;;;;;;;;;;;-140.72;100.00;52196.06;4903693;29;20285;-76
2022/08/04 07:56:09;;;;;;;;;;;;;;;-140.72;100.00;52187.97;4898804;29;19962;-76
2022/08/04 07:58:34;;;;;;;;;;;;;;;-140.72;100.00;52192.00;4892257;29;19946;-73
2022/08/04 08:00:59;;;;;;;;;;;;;;;-140.72;100.00;52200.13;4894658;29;19920;-75
2022/08/04 08:03:25;;;;;;;;;;;;;;;-140.72;100.00;52200.13;4897941;29;19923;-75
2022/08/04 08:05:50;;;;;;;;;;;;;;;-140.72;100.00;52200.13;4892430;29;19923;-75
2022/08/04 08:08:16;;;;;;;;;;;;;;;-140.72;100.00;52216.34;4900532;29;20018;-74
2022/08/04 08:10:45;;;;;;;;;;;;;;;-140.72;100.00;52189.97;4879262;29;19919;-72
2022/08/04 08:13:10;;;;;;;;;;;;;;;-140.72;100.00;52167.66;4892596;29;19934;-74
2022/08/04 08:15:36;;;;;;;;;;;;;;;-140.72;100.00;52198.09;4890479;29;19920;-74
2022/08/04 08:18:01;;;;;;;;;;;;;;;-140.72;100.00;52173.75;4880594;29;19920;-75
2022/08/04 08:20:30;;;;;;;;;;;;;;;-140.72;100.00;52112.88;4880246;29;19991;-74
2022/08/04 08:22:56;;;;;;;;;;;;;;;-140.72;100.00;52133.16;4880096;29;19937;-76
2022/08/04 08:25:21;;;;;;;;;;;;;;;-140.72;100.00;52135.19;4901963;29;20539;-74
2022/08/04 08:27:46;;;;;;;;;;;;;;;-140.72;100.00;52133.16;4901240;29;19920;-75
2022/08/04 08:30:12;;;;;;;;;;;;;;;-140.72;100.00;52133.16;4882912;29;19924;-76
2022/08/04 08:32:37;;;;;;;;;;;;;;;-140.72;100.00;52090.56;4891412;29;19962;-73
2022/08/04 08:35:02;;;;;;;;;;;;;;;-140.72;100.00;52102.75;4878714;29;19982;-76
2022/08/04 08:37:39;;;;;;;;;;;;;;;-140.72;4.63;52121.00;4896226;29;19927;-76
2022/08/04 08:40:20;;;;;;;;;;;;;;;-140.72;0.00;52127.09;4884459;29;19927;-75
2022/08/04 08:43:04;;;;;;;;;;;;;;;-140.72;0.00;52131.16;4879155;29;19931;-76
2022/08/04 08:45:40;;;;;;;;;;;;;;;-140.72;0.00;52104.75;4891630;29;19927;-73
2022/08/04 08:48:24;;;;;;;;;;;;;;;-140.72;0.00;52090.56;4892678;29;19919;-76
2022/08/04 08:51:08;;;;;;;;;;;;;;;-140.72;0.00;52102.75;4889990;29;20057;-74
2022/08/04 08:53:45;;;;;;;;;;;;;;;-140.72;0.00;52084.47;4886048;29;19972;-74
2022/08/04 08:56:10;;;;;;;;;;;;;;;-140.72;0.00;52112.88;4884781;29;19924;-74
2022/08/04 08:58:45;;;;;;;;;;;;;;;-140.72;0.00;52070.28;4887788;29;20411;-76
2022/08/04 09:01:10;;;;;;;;;;;;;;;-140.72;0.00;52029.69;4899542;29;19919;-74
2022/08/04 09:03:42;;;;;;;;;;;;;;;-140.72;0.00;52056.06;4892768;29;19920;-76
2022/08/04 09:06:30;;;;;;;;;;;;;;;-140.72;0.00;52074.34;4866394;29;20277;-76
2022/08/04 09:09:08;;;;;;;;;;;;;;;-140.72;0.00;52072.31;4875909;29;19924;-78
2022/08/04 09:11:56;;;;;;;;;;;;;;;-140.72;0.00;52005.34;4872648;29;19958;-78
2022/08/04 09:14:27;;;;;;;;;;;;;;;-140.72;0.00;52009.41;4870673;29;19988;-76
2022/08/04 09:16:53;;;;;;;;;;;;;;;-140.72;0.00;52049.97;4879118;29;19920;-77
2022/08/04 09:19:20;;;;;;;;;;;;;;;-140.72;0.00;52043.91;4898583;29;19927;-77
2022/08/04 09:21:52;;;;;;;;;;;;;;;-140.72;0.00;52080.41;4873360;29;20399;-77
2022/08/04 09:24:36;;;;;;;;;;;;;;;-140.72;0.00;52086.50;4865948;29;19926;-76
2022/08/04 09:27:04;;;;;;;;;;;;;;;-140.72;0.00;52045.94;4881719;29;19959;-76
2022/08/04 09:29:29;;;;;;;;;;;;;;;-140.72;0.00;52054.03;4898028;29;19919;-77
2022/08/04 09:32:21;;;;;;;;;;;;;;;-140.72;0.00;52043.91;4880455;29;19983;-76
2022/08/04 09:34:47;;;;;;;;;;;;;;;-140.72;0.00;52102.75;4886499;29;19935;-75
2022/08/04 09:37:19;;;;;;;;;;;;;;;-140.72;0.00;52112.88;4882640;29;19924;-76
2022/08/04 09:39:51;;;;;;;;;;;;;;;-140.72;0.00;52043.91;4883582;29;19924;-76
2022/08/04 09:42:27;;;;;;;;;;;;;;;-140.72;0.00;52062.16;4899128;29;19930;-75
2022/08/04 09:45:08;;;;;;;;;;;;;;;-140.72;0.00;52066.22;4888638;29;20403;-75
2022/08/04 09:47:38;;;;;;;;;;;;;;;-140.72;0.00;52074.34;4893377;29;19920;-75
2022/08/04 09:50:13;;;;;;;;;;;;;;;-140.72;0.00;52074.34;4893703;29;19934;-75
2022/08/04 09:52:51;;;;;;;;;;;;;;;-140.72;0.00;52070.28;4884508;29;19924;-76
2022/08/04 09:55:16;;;;;;;;;;;;;;;-140.72;0.00;52102.75;4884148;29;19979;-76
2022/08/04 09:57:52;;;;;;;;;;;;;;;-140.72;0.00;52102.75;4885149;29;19926;-75
2022/08/04 10:00:19;;;;;;;;;;;;;;;-140.72;0.00;52106.78;4888681;29;19927;-76
2022/08/04 10:02:50;;;;;;;;;;;;;;;-140.72;0.00;52100.72;4872751;29;19924;-77
2022/08/04 10:05:20;;;;;;;;;;;;;;;-140.72;0.00;52131.16;4887336;29;19970;-76
2022/08/04 10:08:04;;;;;;;;;;;;;;;-140.72;0.00;52049.97;4880479;29;20699;-77
2022/08/04 10:10:32;;;;;;;;;;;;;;;-140.72;0.00;52066.22;4893875;29;19924;-77
2022/08/04 10:13:01;;;;;;;;;;;;;;;-140.72;0.00;52037.81;4875768;29;19930;-77
2022/08/04 10:15:45;;;;;;;;;;;;;;;-140.72;0.00;52064.19;4866778;29;19924;-76
2022/08/04 10:18:34;;;;;;;;;;;;;;;-140.72;0.00;52086.50;4880846;29;20023;-79
2022/08/04 10:21:12;;;;;;;;;;;;;;;-140.72;0.00;52086.50;4896840;29;19983;-81
2022/08/04 10:23:45;;;;;;;;;;;;;;;-140.72;0.00;52074.34;4888558;29;19972;-80
2022/08/04 10:26:19;;;;;;;;;;;;;;;-140.72;0.00;52041.88;4893572;29;19927;-79
2022/08/04 10:28:48;;;;;;;;;;;;;;;-140.72;0.00;52043.91;4895842;29;20047;-78
2022/08/04 10:31:18;;;;;;;;;;;;;;;-140.72;0.00;52035.78;4876946;29;19923;-77
2022/08/04 10:34:07;;;;;;;;;;;;;;;-140.72;0.00;52062.16;4894647;29;19924;-77
2022/08/04 10:36:40;;;;;;;;;;;;;;;-140.72;0.00;52007.38;4890067;29;19958;-78
2022/08/04 10:39:08;;;;;;;;;;;;;;;-140.72;0.00;52005.34;4876187;29;19920;-78
2022/08/04 10:41:52;;;;;;;;;;;;;;;-140.72;0.00;51991.16;4876390;29;20014;-77
2022/08/04 10:44:36;;;;;;;;;;;;;;;-140.72;0.00;51952.59;4875588;29;20087;-78
2022/08/04 10:47:03;;;;;;;;;;;;;;;-140.72;0.00;51899.84;4875326;29;20969;-78
2022/08/04 10:49:58;;;;;;;;;;;;;;;-140.72;0.00;51932.31;4885824;29;20307;-78
2022/08/04 10:52:42;;;;;;;;;;;;;;;-140.72;0.00;51940.41;4866899;29;19919;-79
2022/08/04 10:55:11;;;;;;;;;;;;;;;-140.72;0.00;51916.06;4883879;29;19924;-74
2022/08/04 10:57:39;;;;;;;;;;;;;;;-140.72;0.00;51897.81;4889717;29;19924;-78
2022/08/04 11:00:15;;;;;;;;;;;;;;;-140.72;0.00;51907.97;4871853;29;20249;-80
2022/08/04 11:02:59;;;;;;;;;;;;;;;-140.72;0.00;51814.63;4893039;29;19923;-76
2022/08/04 11:05:43;;;;;;;;;;;;;;;-140.72;0.00;51745.66;4894285;29;19920;-76
2022/08/04 11:08:10;;;;;;;;;;;;;;;-140.72;0.00;51741.59;4883920;29;19931;-79
2022/08/04 11:10:39;;;;;;;;;;;;;;;-140.72;0.00;51660.44;4883452;29;19920;-76
2022/08/04 11:13:09;;;;;;;;;;;;;;;-140.72;0.00;51660.44;4883024;29;20308;-76
2022/08/04 11:15:39;;;;;;;;;;;;;;;-140.72;0.00;51615.81;4894883;29;20439;-77
2022/08/04 11:18:07;;;;;;;;;;;;;;;-140.72;0.00;51583.34;4885409;29;19920;-76
2022/08/04 11:20:40;;;;;;;;;;;;;;;-140.72;0.00;51601.63;4902704;29;20387;-76
2022/08/04 11:23:14;;;;;;;;;;;;;;;-140.72;0.00;51611.75;4887314;29;19931;-77
2022/08/04 11:26:11;;;;;;;;;;;;;;;-140.72;0.00;51630.00;4892078;29;19928;-76
2022/08/04 11:28:57;;;;;;;;;;;;;;;-140.72;0.00;51550.91;4855939;29;19924;-76
2022/08/04 11:31:24;;;;;;;;;;;;;;;-140.72;0.00;51579.28;4871537;29;19927;-76
2022/08/04 11:34:00;;;;;;;;;;;;;;;-140.72;0.00;51532.63;4887252;29;19923;-76
2022/08/04 11:36:28;;;;;;;;;;;;;;;-140.72;0.00;51567.13;4883708;29;19919;-76
2022/08/04 11:38:53;;;;;;;;;;;;;;;-140.72;0.00;51717.25;4884582;29;20036;-77
2022/08/04 11:41:25;;;;;;;;;;;;;;;-140.72;0.00;51648.28;4894827;29;19929;-80
2022/08/04 11:43:57;;;;;;;;;;;;;;;-140.72;0.00;51542.78;4876783;29;19928;-82
2022/08/04 11:46:25;;;;;;;;;;;;;;;-140.72;0.00;51648.28;4881111;29;19972;-76
2022/08/04 11:49:06;;;;;;;;;;;;;;;-140.72;0.00;51705.06;4894236;29;20609;-79
2022/08/04 11:51:32;;;;;;;;;;;;;;;-140.72;0.00;51638.13;4880194;29;19927;-77
2022/08/04 11:53:58;;;;;;;;;;;;;;;-140.72;0.00;51623.94;4874595;29;19930;-77
2022/08/04 11:56:23;;;;;;;;;;;;;;;-140.72;0.00;51595.53;4885215;29;20335;-77
2022/08/04 11:58:48;;;;;;;;;;;;;;;-140.72;0.00;51540.75;4881127;29;19968;-78
2022/08/04 12:01:19;;;;;;;;;;;;;;;-140.72;0.00;51611.75;4891855;29;19973;-73
2022/08/04 12:03:58;;;;;;;;;;;;;;;-140.72;0.00;51552.94;4889470;29;19919;-78
2022/08/04 12:06:26;;;;;;;;;;;;;;;-140.72;0.00;51500.19;4895974;29;19924;-76
2022/08/04 12:09:04;;;;;;;;;;;;;;;-140.72;0.00;51518.44;4879836;29;19928;-78
2022/08/04 12:11:47;;;;;;;;;;;;;;;-140.72;0.00;51465.69;4893567;29;19927;-77
2022/08/04 12:14:28;;;;;;;;;;;;;;;-140.72;0.00;51457.56;4886168;29;19970;-76
2022/08/04 12:17:00;;;;;;;;;;;;;;;-140.72;0.00;51443.38;4902782;29;20393;-78
2022/08/04 12:19:25;;;;;;;;;;;;;;;-140.72;0.00;51445.41;4890994;29;19927;-75
2022/08/04 12:21:53;;;;;;;;;;;;;;;-140.72;0.00;51431.19;4896588;29;19951;-78
2022/08/04 12:24:25;;;;;;;;;;;;;;;-140.72;0.00;51439.31;4908803;29;19938;-79
2022/08/04 12:26:55;;;;;;;;;;;;;;;-140.72;0.00;51471.78;4891232;29;19923;-76
2022/08/04 12:29:22;;;;;;;;;;;;;;;-140.72;0.00;51465.69;4891181;29;19924;-78
2022/08/04 12:31:51;;;;;;;;;;;;;;;-140.72;0.00;51449.47;4895832;29;20610;-76
2022/08/04 12:34:16;;;;;;;;;;;;;;;-140.72;0.00;51388.59;4902602;29;19919;-76
2022/08/04 12:36:44;;;;;;;;;;;;;;;-140.72;0.00;51384.53;4907340;29;19926;-76
2022/08/04 12:39:18;;;;;;;;;;;;;;;-140.72;0.00;51457.56;4888574;29;19924;-74
2022/08/04 12:41:57;;;;;;;;;;;;;;;-140.72;0.00;51447.44;4880442;29;19927;-75
2022/08/04 12:44:22;;;;;;;;;;;;;;;-140.72;0.00;51384.53;4901994;29;20028;-74
2022/08/04 12:46:47;;;;;;;;;;;;;;;-140.72;0.00;51502.22;4869871;29;19971;-75
2022/08/04 12:49:14;;;;;;;;;;;;;;;-140.72;0.00;51437.28;4884170;29;19919;-75
2022/08/04 12:51:42;;;;;;;;;;;;;;;-140.72;0.00;51449.47;4906045;29;20303;-76
2022/08/04 12:54:09;;;;;;;;;;;;;;;-140.72;0.00;51463.66;4892116;29;19935;-72